createdAt,value
2018-07-06T00:00:42.757Z,0.20
2018-07-06T00:03:22.650Z,0.20
2018-07-06T00:06:02.272Z,0.30
2018-07-06T00:08:41.911Z,0.20
2018-07-06T00:11:21.512Z,0.20
2018-07-06T00:14:00.995Z,0.20
2018-07-06T00:16:40.634Z,0.30
2018-07-06T00:19:20.362Z,0.20
2018-07-06T00:21:59.902Z,0.30
2018-07-06T00:24:33.485Z,0.40
2018-07-06T00:27:13.180Z,0.20
2018-07-06T00:29:52.799Z,0.20
2018-07-06T00:32:32.466Z,0.20
2018-07-06T00:35:06.018Z,0.65
2018-07-06T00:37:45.719Z,0.20
2018-07-06T00:40:19.370Z,0.20
2018-07-06T00:42:59.034Z,0.30
2018-07-06T00:45:38.703Z,0.20
2018-07-06T00:48:12.283Z,0.20
2018-07-06T00:50:51.906Z,0.40
2018-07-06T00:53:31.481Z,0.62
2018-07-06T00:56:05.170Z,0.20
2018-07-06T00:58:44.935Z,0.30
2018-07-06T01:01:24.555Z,0.30
2018-07-06T01:04:04.271Z,0.30
2018-07-06T01:06:43.914Z,0.20
2018-07-06T01:09:23.639Z,0.20
2018-07-06T01:12:08.674Z,0.30
2018-07-06T01:14:48.250Z,0.20
2018-07-06T01:17:27.761Z,0.40
2018-07-06T01:20:01.333Z,0.30
2018-07-06T01:22:41.137Z,0.20
2018-07-06T01:25:20.665Z,0.20
2018-07-06T01:28:00.240Z,0.20
2018-07-06T01:30:39.864Z,0.20
2018-07-06T01:33:19.655Z,0.20
2018-07-06T01:35:59.322Z,0.40
2018-07-06T01:38:32.993Z,0.20
2018-07-06T01:41:13.637Z,0.20
2018-07-06T01:43:53.219Z,0.20
2018-07-06T01:46:32.958Z,0.37
2018-07-06T01:49:12.547Z,0.20
2018-07-06T01:51:52.283Z,0.30
2018-07-06T01:54:32.130Z,0.20
2018-07-06T01:57:11.707Z,0.30
2018-07-06T01:59:51.291Z,0.20
2018-07-06T02:02:31.063Z,0.30
2018-07-06T02:05:10.595Z,0.30
2018-07-06T02:07:50.314Z,0.30
2018-07-06T02:10:29.999Z,0.30
2018-07-06T02:13:09.707Z,0.30
2018-07-06T02:15:49.378Z,0.20
2018-07-06T02:18:22.972Z,0.20
2018-07-06T02:21:02.522Z,0.30
2018-07-06T02:23:42.118Z,0.30
2018-07-06T02:26:21.795Z,0.42
2018-07-06T02:29:01.527Z,0.30
2018-07-06T02:31:41.188Z,0.20
2018-07-06T02:34:14.874Z,0.20
2018-07-06T02:36:54.622Z,0.20
2018-07-06T02:39:34.372Z,0.20
2018-07-06T02:42:14.131Z,0.30
2018-07-06T02:44:47.772Z,0.20
2018-07-06T02:47:27.710Z,0.20
2018-07-06T02:50:07.265Z,0.28
2018-07-06T02:52:46.998Z,0.42
2018-07-06T02:55:26.548Z,0.20
2018-07-06T02:58:06.167Z,0.20
2018-07-06T03:00:45.859Z,0.30
2018-07-06T03:03:25.422Z,0.30
2018-07-06T03:06:05.088Z,0.30
2018-07-06T03:08:38.742Z,0.30
2018-07-06T03:11:18.670Z,0.20
2018-07-06T03:13:58.275Z,0.28
2018-07-06T03:16:37.859Z,0.20
2018-07-06T03:19:17.494Z,0.30
2018-07-06T03:21:57.057Z,0.20
2018-07-06T03:24:36.735Z,0.20
2018-07-06T03:27:16.375Z,0.37
2018-07-06T03:29:56.015Z,0.30
2018-07-06T03:32:35.584Z,0.40
2018-07-06T03:35:09.145Z,0.33
2018-07-06T03:37:49.051Z,0.20
2018-07-06T03:40:28.710Z,0.45
2018-07-06T03:43:08.326Z,0.20
2018-07-06T03:45:48.011Z,0.40
2018-07-06T03:48:28.928Z,0.65
2018-07-06T03:51:02.613Z,0.40
2018-07-06T03:53:42.363Z,0.30
2018-07-06T03:56:21.963Z,0.30
2018-07-06T03:59:01.550Z,0.30
2018-07-06T04:01:41.229Z,0.20
2018-07-06T04:04:20.957Z,0.30
2018-07-06T04:07:00.583Z,0.30
2018-07-06T04:09:40.160Z,0.20
2018-07-06T04:12:19.995Z,0.42
2018-07-06T04:14:53.618Z,0.30
2018-07-06T04:17:33.202Z,0.30
2018-07-06T04:20:12.757Z,0.30
2018-07-06T04:22:52.410Z,0.20
2018-07-06T04:25:25.930Z,0.20
2018-07-06T04:28:05.600Z,0.33
2018-07-06T04:30:45.242Z,0.20
2018-07-06T04:33:24.857Z,0.30
2018-07-06T04:36:04.394Z,0.30
2018-07-06T04:38:44.127Z,0.30
2018-07-06T04:41:23.742Z,0.40
2018-07-06T04:44:03.562Z,0.30
2018-07-06T04:46:43.183Z,0.30
2018-07-06T04:49:22.766Z,0.40
2018-07-06T04:52:02.427Z,0.30
2018-07-06T04:54:42.035Z,0.20
2018-07-06T04:57:21.603Z,0.20
2018-07-06T05:00:01.276Z,0.30
2018-07-06T05:02:35.068Z,0.23
2018-07-06T05:05:14.733Z,0.20
2018-07-06T05:07:48.480Z,0.30
2018-07-06T05:10:28.046Z,0.30
2018-07-06T05:13:07.927Z,0.30
2018-07-06T05:15:41.619Z,0.30
2018-07-06T05:18:21.235Z,0.40
2018-07-06T05:21:00.772Z,0.40
2018-07-06T05:23:40.547Z,0.30
2018-07-06T05:26:20.223Z,0.40
2018-07-06T05:28:59.910Z,0.37
2018-07-06T05:31:40.104Z,0.20
2018-07-06T05:34:13.817Z,0.60
2018-07-06T05:36:53.443Z,0.60
2018-07-06T05:39:33.113Z,0.30
2018-07-06T05:42:12.710Z,0.30
2018-07-06T05:44:52.494Z,0.30
2018-07-06T05:47:32.171Z,0.30
2018-07-06T05:50:11.961Z,0.45
2018-07-06T05:52:51.559Z,0.30
2018-07-06T05:55:31.135Z,0.53
2018-07-06T05:58:10.802Z,0.30
2018-07-06T06:00:50.482Z,0.30
2018-07-06T06:03:30.318Z,0.20
2018-07-06T06:06:10.141Z,0.20
2018-07-06T06:08:37.426Z,0.53
2018-07-06T06:11:05.871Z,0.30
2018-07-06T06:13:34.044Z,0.30
2018-07-06T06:16:02.199Z,0.55
2018-07-06T06:18:30.707Z,0.40
2018-07-06T06:20:59.097Z,0.55
2018-07-06T06:23:27.533Z,0.20
2018-07-06T06:25:55.980Z,0.30
2018-07-06T06:28:24.421Z,0.37
2018-07-06T06:30:52.548Z,0.30
2018-07-06T06:33:21.131Z,0.20
2018-07-06T06:35:49.592Z,0.40
2018-07-06T06:38:18.134Z,0.28
2018-07-06T06:40:46.600Z,0.42
2018-07-06T06:43:15.109Z,0.70
2018-07-06T06:45:43.243Z,0.40
2018-07-06T06:48:11.727Z,0.30
2018-07-06T06:50:40.310Z,0.20
2018-07-06T06:53:08.802Z,0.30
2018-07-06T06:55:37.274Z,0.42
2018-07-06T06:58:05.766Z,0.40
2018-07-06T07:00:34.222Z,0.20
2018-07-06T07:03:02.985Z,0.40
2018-07-06T07:05:31.511Z,0.40
2018-07-06T07:08:00.055Z,0.33
2018-07-06T07:10:28.531Z,0.40
2018-07-06T07:12:57.006Z,0.60
2018-07-06T07:15:25.457Z,0.40
2018-07-06T07:17:53.958Z,0.40
2018-07-06T07:20:22.090Z,0.30
2018-07-06T07:22:50.681Z,0.37
2018-07-06T07:25:19.127Z,0.30
2018-07-06T07:27:47.672Z,0.30
2018-07-06T07:30:15.808Z,0.30
2018-07-06T07:32:44.311Z,0.30
2018-07-06T07:35:12.745Z,0.40
2018-07-06T07:37:41.313Z,0.35
2018-07-06T07:40:09.759Z,0.65
2018-07-06T07:42:38.271Z,0.62
2018-07-06T07:45:06.759Z,0.40
2018-07-06T07:47:35.318Z,0.50
2018-07-06T07:50:03.451Z,0.47
2018-07-06T07:52:43.267Z,0.40
2018-07-06T07:55:11.844Z,0.50
2018-07-06T07:57:40.287Z,0.37
2018-07-06T08:00:08.756Z,0.60
2018-07-06T08:02:37.221Z,0.33
2018-07-06T08:05:05.727Z,0.53
2018-07-06T08:07:34.246Z,0.60
2018-07-06T08:10:02.785Z,1.52
2018-07-06T08:12:31.250Z,0.60
2018-07-06T08:14:59.720Z,0.57
2018-07-06T08:17:28.993Z,0.90
2018-07-06T08:19:57.631Z,0.50
2018-07-06T08:22:26.036Z,0.70
2018-07-06T08:24:54.467Z,0.82
2018-07-06T08:27:22.900Z,0.55
2018-07-06T08:29:51.059Z,1.10
2018-07-06T08:32:19.478Z,1.20
2018-07-06T08:34:59.240Z,1.65
2018-07-06T08:37:49.748Z,1.45
2018-07-06T08:40:18.735Z,1.40
2018-07-06T08:42:51.286Z,1.35
2018-07-06T08:45:19.807Z,1.10
2018-07-06T08:47:48.450Z,1.15
2018-07-06T08:50:17.029Z,1.57
2018-07-06T08:52:47.088Z,0.60
2018-07-06T08:55:15.835Z,1.20
2018-07-06T08:57:45.315Z,1.82
2018-07-06T09:00:14.166Z,1.85
2018-07-06T09:02:42.648Z,1.72
2018-07-06T09:05:11.810Z,1.32
2018-07-06T09:07:40.589Z,1.27
2018-07-06T09:10:09.117Z,1.15
2018-07-06T09:12:37.843Z,1.55
2018-07-06T09:15:06.845Z,1.70
2018-07-06T09:17:35.343Z,1.30
2018-07-06T09:20:03.902Z,1.10
2018-07-06T09:22:32.399Z,0.93
2018-07-06T09:25:03.034Z,1.43
2018-07-06T09:27:31.517Z,1.02
2018-07-06T09:30:00.056Z,1.17
2018-07-06T09:32:28.566Z,1.13
2018-07-06T09:34:58.150Z,1.73
2018-07-06T09:37:26.656Z,1.40
2018-07-06T09:39:55.151Z,2.20
2018-07-06T09:42:23.645Z,1.57
2018-07-06T09:44:52.099Z,2.17
2018-07-06T09:47:20.602Z,1.98
2018-07-06T09:49:49.071Z,1.40
2018-07-06T09:52:17.547Z,2.37
2018-07-06T09:54:45.971Z,2.07
2018-07-06T09:57:14.761Z,2.27
2018-07-06T09:59:43.195Z,2.50
2018-07-06T10:02:11.706Z,1.53
2018-07-06T10:04:40.263Z,1.77
2018-07-06T10:07:08.717Z,1.40
2018-07-06T10:09:37.210Z,2.60
2018-07-06T10:12:05.722Z,1.07
2018-07-06T10:14:33.856Z,1.80
2018-07-06T10:17:02.299Z,2.03
2018-07-06T10:19:30.769Z,2.00
2018-07-06T10:21:59.203Z,1.27
2018-07-06T10:24:27.658Z,1.03
2018-07-06T10:26:56.214Z,1.07
2018-07-06T10:30:38.116Z,1.30
2018-07-06T10:33:07.505Z,1.23
2018-07-06T10:35:35.990Z,1.43
2018-07-06T10:38:04.482Z,2.20
2018-07-06T10:40:32.929Z,1.70
2018-07-06T10:43:01.387Z,1.50
2018-07-06T10:45:29.875Z,2.57
2018-07-06T10:47:58.437Z,1.93
2018-07-06T10:50:26.855Z,1.67
2018-07-06T10:52:55.287Z,1.13
2018-07-06T10:55:23.769Z,2.00
2018-07-06T10:57:52.348Z,1.53
2018-07-06T11:00:20.861Z,0.90
2018-07-06T11:02:49.335Z,2.07
2018-07-06T11:05:17.875Z,1.50
2018-07-06T11:07:46.482Z,1.73
2018-07-06T11:10:15.012Z,0.83
2018-07-06T11:12:43.535Z,1.67
2018-07-06T11:15:12.124Z,1.57
2018-07-06T11:17:40.558Z,1.17
2018-07-06T11:20:09.115Z,0.90
2018-07-06T11:22:37.567Z,1.10
2018-07-06T11:25:06.333Z,0.77
2018-07-06T11:27:34.488Z,2.60
2018-07-06T11:30:03.043Z,1.17
2018-07-06T11:32:31.501Z,0.80
2018-07-06T11:34:59.970Z,1.10
2018-07-06T11:37:28.449Z,0.80
2018-07-06T11:39:56.966Z,0.90
2018-07-06T11:42:25.442Z,0.88
2018-07-06T11:44:54.072Z,1.45
2018-07-06T11:47:22.476Z,0.80
2018-07-06T11:49:50.977Z,0.85
2018-07-06T11:52:19.464Z,0.95
2018-07-06T11:54:48.001Z,0.40
2018-07-06T11:57:16.478Z,0.57
2018-07-06T11:59:44.968Z,0.40
2018-07-06T12:02:13.439Z,0.40
2018-07-06T12:04:41.911Z,0.40
2018-07-06T12:07:10.407Z,0.40
2018-07-06T12:09:38.871Z,0.40
2018-07-06T12:12:07.387Z,0.40
2018-07-06T12:14:45.711Z,0.50
2018-07-06T12:17:14.461Z,0.70
2018-07-06T12:19:43.017Z,0.62
2018-07-06T12:22:11.462Z,0.42
2018-07-06T12:24:39.935Z,0.65
2018-07-06T12:27:08.070Z,0.70
2018-07-06T12:29:36.539Z,0.95
2018-07-06T12:32:05.006Z,0.98
2018-07-06T12:34:33.466Z,0.80
2018-07-06T12:37:01.973Z,0.60
2018-07-06T12:39:30.409Z,1.53
2018-07-06T12:41:58.546Z,0.70
2018-07-06T12:44:27.037Z,0.80
2018-07-06T12:46:55.543Z,1.07
2018-07-06T12:49:24.066Z,3.00
2018-07-06T12:51:52.624Z,1.63
2018-07-06T12:54:21.107Z,0.83
2018-07-06T12:56:49.575Z,0.90
2018-07-06T12:59:18.029Z,0.80
2018-07-06T13:01:46.499Z,0.93
2018-07-06T13:04:14.942Z,0.90
2018-07-06T13:06:43.419Z,1.67
2018-07-06T13:09:11.876Z,1.20
2018-07-06T13:11:40.489Z,1.97
2018-07-06T13:14:08.939Z,1.47
2018-07-06T13:16:37.386Z,1.23
2018-07-06T13:19:05.883Z,0.93
2018-07-06T13:21:34.435Z,1.03
2018-07-06T13:24:02.943Z,1.43
2018-07-06T13:26:31.809Z,1.23
2018-07-06T13:29:00.281Z,1.37
2018-07-06T13:31:28.779Z,0.90
2018-07-06T13:33:57.324Z,0.87
2018-07-06T13:36:25.758Z,0.80
2018-07-06T13:38:54.195Z,0.97
2018-07-06T13:41:22.653Z,1.53
2018-07-06T13:43:51.180Z,0.80
2018-07-06T13:46:19.690Z,1.13
2018-07-06T13:48:48.156Z,0.63
2018-07-06T13:51:16.669Z,0.80
2018-07-06T13:53:44.835Z,0.90
2018-07-06T13:56:13.283Z,0.83
2018-07-06T13:58:41.754Z,0.50
2018-07-06T14:01:10.198Z,0.50
2018-07-06T14:03:38.677Z,1.00
2018-07-06T14:06:07.195Z,0.40
2018-07-06T14:08:35.756Z,0.83
2018-07-06T14:11:04.215Z,0.90
2018-07-06T14:13:32.697Z,0.47
2018-07-06T14:16:01.133Z,1.60
2018-07-06T14:18:29.784Z,0.57
2018-07-06T14:20:57.894Z,0.67
2018-07-06T14:23:26.682Z,0.50
2018-07-06T14:25:55.111Z,0.50
2018-07-06T14:28:23.585Z,0.60
2018-07-06T14:30:51.991Z,0.80
2018-07-06T14:33:20.460Z,0.70
2018-07-06T14:35:48.977Z,0.40
2018-07-06T14:38:17.379Z,0.70
2018-07-06T14:40:45.809Z,0.80
2018-07-06T14:43:14.226Z,0.60
2018-07-06T14:45:42.667Z,0.90
2018-07-06T14:48:10.794Z,0.50
2018-07-06T14:50:39.203Z,0.60
2018-07-06T14:53:07.650Z,0.50
2018-07-06T14:55:36.151Z,0.60
2018-07-06T14:58:04.633Z,0.53
2018-07-06T15:00:33.094Z,0.70
2018-07-06T15:03:01.555Z,0.73
2018-07-06T15:05:29.988Z,0.47
2018-07-06T15:07:58.424Z,0.70
2018-07-06T15:10:26.850Z,0.60
2018-07-06T15:12:55.301Z,0.70
2018-07-06T15:15:23.771Z,0.50
2018-07-06T15:17:52.223Z,0.50
2018-07-06T15:20:20.668Z,0.47
2018-07-06T15:22:49.159Z,0.97
2018-07-06T15:25:17.651Z,0.60
2018-07-06T15:27:46.058Z,0.50
2018-07-06T15:30:14.740Z,1.20
2018-07-06T15:32:43.163Z,0.60
2018-07-06T15:35:11.671Z,0.50
2018-07-06T15:37:40.104Z,0.50
2018-07-06T15:40:08.665Z,0.50
2018-07-06T15:42:37.106Z,0.70
2018-07-06T15:45:05.583Z,0.50
2018-07-06T15:47:34.041Z,0.53
2018-07-06T15:50:02.564Z,0.93
2018-07-06T15:52:30.989Z,0.60
2018-07-06T15:54:59.467Z,0.77
2018-07-06T15:57:27.921Z,0.60
2018-07-06T15:59:56.425Z,0.50
2018-07-06T16:02:24.922Z,0.73
2018-07-06T16:04:53.399Z,0.50
2018-07-06T16:07:21.853Z,0.50
2018-07-06T16:09:50.287Z,0.43
2018-07-06T16:12:18.747Z,0.70
2018-07-06T16:14:47.244Z,0.40
2018-07-06T16:17:15.694Z,0.83
2018-07-06T16:19:44.146Z,0.40
2018-07-06T16:22:12.602Z,0.40
2018-07-06T16:24:41.088Z,0.60
2018-07-06T16:27:09.552Z,0.70
2018-07-06T16:29:38.052Z,0.80
2018-07-06T16:32:06.464Z,0.70
2018-07-06T16:34:34.895Z,0.63
2018-07-06T16:37:03.331Z,0.93
2018-07-06T16:39:31.792Z,0.70
2018-07-06T16:42:00.223Z,0.50
2018-07-06T16:44:28.711Z,0.50
2018-07-06T16:46:57.185Z,0.60
2018-07-06T16:49:25.691Z,1.00
2018-07-06T16:51:54.158Z,0.60
2018-07-06T16:54:22.615Z,0.50
2018-07-06T16:56:51.034Z,0.47
2018-07-06T16:59:19.487Z,0.60
2018-07-06T17:01:47.938Z,0.50
2018-07-06T17:04:16.087Z,0.50
2018-07-06T17:06:44.652Z,0.50
2018-07-06T17:09:13.107Z,0.50
2018-07-06T17:11:41.577Z,0.70
2018-07-06T17:14:10.017Z,0.60
2018-07-06T17:16:38.460Z,0.60
2018-07-06T17:19:06.878Z,1.03
2018-07-06T17:21:35.314Z,0.40
2018-07-06T17:24:03.807Z,0.60
2018-07-06T17:26:32.259Z,0.40
2018-07-06T17:29:00.701Z,0.60
2018-07-06T17:31:29.224Z,1.27
2018-07-06T17:33:57.718Z,0.60
2018-07-06T17:36:26.171Z,1.77
2018-07-06T17:38:54.602Z,0.70
2018-07-06T17:41:23.068Z,0.70
2018-07-06T17:43:52.019Z,0.50
2018-07-06T17:46:20.518Z,0.77
2018-07-06T17:48:48.932Z,0.50
2018-07-06T17:51:17.387Z,0.50
2018-07-06T17:53:45.819Z,0.50
2018-07-06T17:56:14.351Z,0.50
2018-07-06T17:58:42.755Z,0.40
2018-07-06T18:01:11.203Z,1.10
2018-07-06T18:03:39.662Z,0.50
2018-07-06T18:06:07.793Z,0.60
2018-07-06T18:08:36.246Z,0.50
2018-07-06T18:11:04.735Z,0.60
2018-07-06T18:13:33.243Z,0.40
2018-07-06T18:16:01.765Z,0.70
2018-07-06T18:18:30.612Z,0.53
2018-07-06T18:20:59.260Z,0.50
2018-07-06T18:23:27.838Z,0.50
2018-07-06T18:25:56.521Z,0.60
2018-07-06T18:28:24.963Z,0.60
2018-07-06T18:30:53.375Z,0.67
2018-07-06T18:33:21.563Z,0.77
2018-07-06T18:35:49.991Z,0.50
2018-07-06T18:38:18.475Z,0.83
2018-07-06T18:40:47.269Z,0.50
2018-07-06T18:43:15.904Z,0.67
2018-07-06T18:45:44.380Z,1.23
2018-07-06T18:48:12.826Z,0.60
2018-07-06T18:50:41.248Z,0.40
2018-07-06T18:53:09.761Z,0.70
2018-07-06T18:55:38.299Z,0.70
2018-07-06T18:58:06.780Z,0.93
2018-07-06T19:00:35.279Z,0.77
2018-07-06T19:03:03.689Z,1.33
2018-07-06T19:05:32.181Z,0.50
2018-07-06T19:08:00.645Z,1.57
2018-07-06T19:10:29.140Z,0.50
2018-07-06T19:12:57.708Z,0.60
2018-07-06T19:15:26.227Z,2.30
2018-07-06T19:17:54.675Z,1.10
2018-07-06T19:20:23.414Z,0.50
2018-07-06T19:22:51.920Z,0.60
2018-07-06T19:25:20.343Z,0.70
2018-07-06T19:27:48.800Z,0.60
2018-07-06T19:30:17.287Z,0.90
2018-07-06T19:32:45.875Z,0.80
2018-07-06T19:35:14.411Z,0.82
2018-07-06T19:37:42.859Z,1.10
2018-07-06T19:40:11.313Z,0.90
2018-07-06T19:42:39.927Z,0.82
2018-07-06T19:45:08.443Z,0.62
2018-07-06T19:47:36.939Z,0.80
2018-07-06T19:50:05.532Z,0.55
2018-07-06T19:52:34.021Z,0.68
2018-07-06T19:55:02.510Z,1.05
2018-07-06T19:57:31.194Z,0.70
2018-07-06T19:59:59.739Z,0.60
2018-07-06T20:02:28.240Z,0.70
2018-07-06T20:04:56.770Z,0.80
2018-07-06T20:07:25.218Z,0.60
2018-07-06T20:09:53.672Z,0.70
2018-07-06T20:12:22.138Z,0.60
2018-07-06T20:14:50.578Z,0.88
2018-07-06T20:17:19.090Z,0.70
2018-07-06T20:19:47.784Z,0.85
2018-07-06T20:22:16.290Z,0.75
2018-07-06T20:24:44.763Z,1.10
2018-07-06T20:27:13.221Z,0.80
2018-07-06T20:29:41.689Z,0.85
2018-07-06T20:32:10.145Z,1.35
2018-07-06T20:34:38.642Z,0.60
2018-07-06T20:37:07.138Z,0.50
2018-07-06T20:39:35.667Z,0.68
2018-07-06T20:42:04.137Z,1.20
2018-07-06T20:44:32.250Z,0.98
2018-07-06T20:47:00.763Z,1.77
2018-07-06T20:49:29.207Z,1.52
2018-07-06T20:51:57.745Z,0.65
2018-07-06T20:54:25.914Z,0.80
2018-07-06T20:56:54.582Z,0.62
2018-07-06T20:59:22.995Z,0.55
2018-07-06T21:01:51.435Z,0.50
2018-07-06T21:04:19.852Z,0.75
2018-07-06T21:06:48.331Z,0.80
2018-07-06T21:09:16.779Z,1.40
2018-07-06T21:11:45.229Z,1.02
2018-07-06T21:14:13.644Z,0.90
2018-07-06T21:16:42.114Z,1.90
2018-07-06T21:19:10.535Z,0.80
2018-07-06T21:21:38.694Z,0.62
2018-07-06T21:24:07.119Z,0.72
2018-07-06T21:26:35.543Z,0.53
2018-07-06T21:29:03.970Z,0.50
2018-07-06T21:31:32.533Z,0.50
2018-07-06T21:34:00.642Z,0.40
2018-07-06T21:36:29.096Z,1.10
2018-07-06T21:38:57.526Z,0.60
2018-07-06T21:41:25.985Z,0.82
2018-07-06T21:43:54.431Z,1.10
2018-07-06T21:46:22.891Z,0.90
2018-07-06T21:48:51.328Z,1.30
2018-07-06T21:51:19.809Z,1.12
2018-07-06T21:53:48.257Z,0.60
2018-07-06T21:56:16.683Z,1.00
2018-07-06T21:58:45.111Z,1.10
2018-07-06T22:01:13.260Z,0.93
2018-07-06T22:03:41.687Z,1.15
2018-07-06T22:06:10.135Z,1.67
2018-07-06T22:08:38.595Z,0.80
2018-07-06T22:11:07.079Z,0.80
2018-07-06T22:13:35.523Z,1.42
2018-07-06T22:16:04.015Z,1.65
2018-07-06T22:18:32.447Z,1.17
2018-07-06T22:21:00.921Z,1.17
2018-07-06T22:23:29.087Z,1.40
2018-07-06T22:25:57.526Z,0.70
2018-07-06T22:28:25.955Z,0.88
2018-07-06T22:30:54.419Z,1.20
2018-07-06T22:33:22.850Z,0.72
2018-07-06T22:35:51.294Z,0.50
2018-07-06T22:38:19.736Z,1.02
2018-07-06T22:40:48.218Z,0.98
2018-07-06T22:43:16.658Z,0.70
2018-07-06T22:45:45.068Z,0.50
2018-07-06T22:48:13.691Z,0.70
2018-07-06T22:50:42.115Z,0.80
2018-07-06T22:53:10.579Z,0.70
2018-07-06T22:55:38.724Z,1.12
2018-07-06T22:58:07.191Z,0.70
2018-07-06T23:00:35.627Z,0.93
2018-07-06T23:03:05.215Z,0.62
2018-07-06T23:05:33.345Z,0.90
2018-07-06T23:08:02.048Z,1.10
2018-07-06T23:10:30.494Z,0.90
2018-07-06T23:12:58.966Z,0.90
2018-07-06T23:15:27.385Z,0.90
2018-07-06T23:17:55.870Z,0.78
2018-07-06T23:20:24.302Z,0.50
2018-07-06T23:23:03.768Z,0.62
2018-07-06T23:25:34.638Z,0.85
2018-07-06T23:28:03.235Z,0.72
2018-07-06T23:30:31.686Z,1.10
2018-07-06T23:33:01.135Z,1.25
2018-07-06T23:35:29.302Z,1.05
2018-07-06T23:37:57.763Z,1.05
2018-07-06T23:40:26.262Z,1.00
2018-07-06T23:42:55.142Z,1.05
2018-07-06T23:45:23.686Z,1.37
2018-07-06T23:47:52.215Z,2.02
2018-07-06T23:50:21.303Z,1.07
2018-07-06T23:52:49.836Z,0.93
2018-07-06T23:55:18.463Z,0.85
2018-07-06T23:57:47.378Z,0.80
